Latest Coastal Weather Observations for Bunbury

IDW60701

Issued at 1:52 am WST Wednesday 1 June 2016 (issued every 10 minutes, with the page automatically refreshed every 10 minutes)

About coastal observations | Map of coastal stations | Coastal observations for WA | Marine services | Other Formats
Station Details ID: 009965 Name: BUNBURY Lat: -33.36 Lon: 115.64 Height: 5.2 m
Data from the previous 72 hours. | See also: Recent months at Bunbury
Date/Time
WST
Temp

°C
Wind Pressure Rain
since 9am
mm
Weather Cloud Vis
km
Sea
Height
m
Swell
Dir
 
Speed
knots
Gust
knots
hPa Trend Height
m
Period
s
Dir
01/01:30am 6.0 CALM 0 0 1022.6 - 0.0 - - - - - - -
01/01:00am 6.6 CALM 0 0 1022.7 - 0.0 - - - - - - -
01/12:30am 6.3 CALM 0 0 1022.8 - 0.0 - - - - - - -
01/12:00am 7.0 ESE 1 1 1022.8 - 0.0 - - - - - - -
 
Date/Time
WST
Temp

°C
Wind Pressure Rain
since 9am
mm
Weather Cloud Vis
km
Sea
Height
m
Swell
Dir
 
Speed
knots
Gust
knots
hPa Trend Height
m
Period
s
Dir
31/11:30pm 7.5 ESE 2 3 1022.9 - 0.0 - - - - - - -
31/11:00pm 8.4 ESE 1 1 1022.8 - 0.0 - - - - - - -
31/10:30pm 8.6 ENE 1 3 1022.8 - 0.0 - - - - - - -
31/10:00pm 8.9 SE 1 2 1022.9 - 0.0 - - - - - - -
31/09:30pm 9.2 ESE 1 1 1022.7 - 0.0 - - - - - - -
31/09:00pm 9.8 ESE 2 2 1022.5 - 0.0 - - - - - - -
31/08:30pm 10.5 E 2 3 1022.1 - 0.0 - - - - - - -
31/08:00pm 10.6 CALM 0 0 1022.0 - 0.0 - - - - - - -
31/07:30pm 10.2 CALM 0 0 1022.0 - 0.0 - - - - - - -
31/07:00pm 11.0 CALM 0 0 1021.8 - 0.0 - - - - - - -
31/06:30pm 11.4 CALM 0 0 1021.5 - 0.0 - - - - - - -
31/06:00pm 12.8 CALM 0 0 1021.2 - 0.0 - - - - - - -
31/05:30pm 13.3 CALM 0 0 1020.7 - 0.0 - - - - - - -
31/05:00pm 15.1 CALM 0 0 1020.7 - 0.0 - - - - - - -
31/04:30pm 16.2 CALM 0 0 1020.4 - 0.0 - - - - - - -
31/04:00pm 16.5 W 1 2 1020.2 - 0.0 - - - - - - -
31/03:30pm 16.9 WNW 2 4 1020.1 - 0.0 - - - - - - -
31/03:00pm 17.8 WNW 2 2 1019.9 - 0.0 - - - - - - -
31/02:30pm 17.6 WNW 3 4 1020.0 - 0.0 - - - - - - -
31/02:00pm 18.8 CALM 0 0 1020.0 - 0.0 - - - - - - -
31/01:30pm 18.1 CALM 0 1 1019.9 - 0.0 - - - - - - -
31/01:00pm 17.6 NNE 1 2 1020.3 - 0.0 - - - - - - -
31/12:30pm 17.1 N 1 2 1020.6 - 0.0 - - - - - - -
31/12:00pm 17.0 N 2 3 1020.7 - 0.0 - - - - - - -
31/11:30am 16.2 NE 1 3 1021.0 - 0.0 - - - - - - -
31/11:00am 15.5 NE 1 3 1021.4 - 0.0 - - - - - - -
31/10:30am 15.0 E 3 4 1021.5 - 0.0 - - - - - - -
31/10:00am 13.6 ENE 2 4 1021.3 - 0.0 - - - - - - -
31/09:30am 12.0 E 2 3 1021.4 - 0.0 - - - - - - -
31/09:00am 10.8 E 1 3 1021.4 - 0.0 - - - - - - -
31/08:30am 9.7 CALM 0 2 1021.2 - 0.0 - - - - - - -
31/08:00am 8.9 CALM 0 1 1020.8 - 0.0 - - - - - - -
31/07:30am 7.1 E 2 3 1020.7 - 0.0 - - - - - - -
31/07:00am 6.9 ESE 1 1 1020.7 - 0.0 - - - - - - -
31/06:30am 6.6 CALM 0 3 1020.4 - 0.0 - - - - - - -
31/06:00am 5.4 E 1 2 1020.3 - 0.0 - - - - - - -
31/05:30am 5.0 CALM 0 0 1020.3 - 0.0 - - - - - - -
31/05:00am 5.3 CALM 0 0 1019.9 - 0.0 - - - - - - -
31/04:30am 5.4 CALM 0 1 1019.9 - 0.0 - - - - - - -
31/04:00am 6.1 CALM 0 0 1019.7 - 0.0 - - - - - - -
31/03:30am 6.0 SE 3 3 1019.8 - 0.0 - - - - - - -
31/03:00am 6.0 E 4 6 1019.6 - 0.0 - - - - - - -
31/02:30am 6.7 ENE 2 3 1019.7 - 0.0 - - - - - - -
31/02:00am 5.9 E 2 2 1019.8 - 0.0 - - - - - - -
31/01:30am 6.2 ESE 2 3 1019.5 - 0.0 - - - - - - -
31/01:00am 6.1 CALM 0 0 1019.6 - 0.0 - - - - - - -
31/12:30am 6.0 CALM 0 0 1019.8 - 0.0 - - - - - - -
31/12:00am 6.2 CALM 0 0 1019.9 - 0.0 - - - - - - -
 
Date/Time
WST
Temp

°C
Wind Pressure Rain
since 9am
mm
Weather Cloud Vis
km
Sea
Height
m
Swell
Dir
 
Speed
knots
Gust
knots
hPa Trend Height
m
Period
s
Dir
30/11:30pm 5.7 S 1 2 1019.9 - 0.0 - - - - - - -
30/11:00pm 6.0 CALM 0 0 1019.7 - 0.0 - - - - - - -
30/10:30pm 6.5 CALM 0 1 1019.7 - 0.0 - - - - - - -
30/10:00pm 7.4 CALM 0 0 1019.9 - 0.0 - - - - - - -
30/09:30pm 8.3 CALM 0 0 1019.7 - 0.0 - - - - - - -
30/09:00pm 8.0 E 4 4 1019.7 - 0.0 - - - - - - -
30/08:30pm 8.2 E 2 2 1019.8 - 0.0 - - - - - - -
30/08:00pm 8.1 CALM 0 1 1019.9 - 0.0 - - - - - - -
30/07:30pm 9.1 ENE 1 2 1019.9 - 0.0 - - - - - - -
30/07:00pm 9.3 CALM 0 0 1020.0 - 0.0 - - - - - - -
30/06:30pm 10.3 CALM 0 0 1019.6 - 0.0 - - - - - - -
30/06:00pm 11.4 SSE 1 2 1019.3 - 0.0 - - - - - - -
30/05:30pm 13.0 SE 2 3 1019.0 - 0.0 - - - - - - -
30/05:00pm 14.9 ESE 3 4 1018.8 - 0.0 - - - - - - -
30/04:30pm 16.1 ESE 2 5 1018.5 - 0.0 - - - - - - -
30/04:00pm 16.7 E 2 3 1018.5 - 0.0 - - - - - - -
30/03:30pm 17.0 NNE 1 4 1018.4 - 0.0 - - - - - - -
30/03:00pm 16.9 NNW 3 5 1018.3 - 0.0 - - - - - - -
30/02:30pm 16.3 NW 5 8 1018.4 - 0.0 - - - - - - -
30/02:00pm 16.4 NNW 4 7 1018.4 - 0.0 - - - - - - -
30/01:30pm 16.4 N 4 8 1018.5 - 0.0 - - - - - - -
30/01:00pm 16.6 NNW 5 7 1018.7 - 0.0 - - - - - - -
30/12:30pm 16.2 NNW 6 8 1019.0 - 0.0 - - - - - - -
30/12:00pm 16.1 N 5 9 1019.2 - 0.0 - - - - - - -
30/11:30am 16.1 NNE 6 9 1019.8 - 0.0 - - - - - - -
30/11:00am 15.7 NE 6 9 1020.0 - 0.0 - - - - - - -
30/10:30am 14.8 ENE 8 12 1020.2 - 0.0 - - - - - - -
30/10:00am 14.2 NE 7 10 1020.5 - 0.0 - - - - - - -
30/09:30am 13.1 ENE 7 10 1020.2 - 0.0 - - - - - - -
30/09:00am 12.2 ENE 6 9 1020.3 - 0.0 - - - - - - -
30/08:30am 10.9 ENE 6 9 1020.1 - 0.0 - - - - - - -
30/08:00am 8.4 E 5 7 1020.1 - 0.0 - - - - - - -
30/07:30am 6.6 ENE 2 3 1019.9 - 0.0 - - - - - - -
30/07:00am 6.3 E 2 3 1019.7 - 0.0 - - - - - - -
30/06:30am 6.6 ESE 3 4 1019.2 - 0.0 - - - - - - -
30/06:00am 7.0 ESE 4 4 1019.4 - 0.0 - - - - - - -
30/05:30am 7.3 ESE 3 4 1019.2 - 0.0 - - - - - - -
30/05:00am 7.8 ESE 3 5 1019.1 - 0.0 - - - - - - -
30/04:30am 8.6 ESE 3 4 1019.0 - 0.0 - - - - - - -
30/04:00am 9.5 E 5 8 1018.9 - 0.0 - - - - - - -
30/03:30am 9.7 E 5 7 1019.1 - 0.0 - - - - - - -
30/03:00am 10.4 ESE 2 3 1019.3 - 0.0 - - - - - - -
30/02:30am 10.9 E 3 5 1019.5 - 0.0 - - - - - - -
30/02:00am 11.2 ESE 5 7 1019.5 - 0.0 - - - - - - -
30/01:30am 11.7 ESE 5 8 1019.6 - 0.0 - - - - - - -
30/01:00am 11.5 ESE 5 7 1019.9 - 0.0 - - - - - - -
30/12:30am 11.4 ESE 4 5 1020.0 - 0.0 - - - - - - -
30/12:00am 11.3 ESE 3 5 1020.3 - 0.0 - - - - - - -
 
Date/Time
WST
Temp

°C
Wind Pressure Rain
since 9am
mm
Weather Cloud Vis
km
Sea
Height
m
Swell
Dir
 
Speed
knots
Gust
knots
hPa Trend Height
m
Period
s
Dir
29/11:30pm 11.3 ESE 4 5 1020.3 - 0.0 - - - - - - -
29/11:00pm 11.3 E 3 4 1020.3 - 0.0 - - - - - - -
29/10:30pm 11.0 ESE 2 2 1020.5 - 0.0 - - - - - - -
29/10:00pm 11.2 ESE 3 4 1020.4 - 0.0 - - - - - - -
29/09:30pm 11.1 ESE 3 4 1020.6 - 0.0 - - - - - - -
29/09:00pm 10.8 SE 3 3 1020.6 - 0.0 - - - - - - -
29/08:30pm 10.9 SE 4 5 1020.4 - 0.0 - - - - - - -
29/08:00pm 12.0 ESE 4 4 1020.2 - 0.0 - - - - - - -
29/07:30pm 13.3 SE 3 5 1020.1 - 0.0 - - - - - - -
29/07:00pm 13.5 SE 4 5 1019.9 - 0.0 - - - - - - -
29/06:30pm 13.6 SE 4 5 1019.7 - 0.0 - - - - - - -
29/06:00pm 13.8 SSE 4 6 1019.4 - 0.0 - - - - - - -
29/05:30pm 14.1 SSE 5 7 1019.1 - 0.0 - - - - - - -
29/05:00pm 14.3 S 5 7 1018.9 - 0.0 - - - - - - -
29/04:30pm 14.8 SSE 4 9 1018.8 - 0.0 - - - - - - -
29/04:00pm 15.2 SE 4 6 1018.6 - 0.0 - - - - - - -
29/03:30pm 15.7 SSE 5 8 1018.4 - 0.0 - - - - - - -
29/03:00pm 15.8 SE 4 6 1018.2 - 0.0 - - - - - - -
29/02:30pm 16.9 SSE 2 6 1018.0 - 0.0 - - - - - - -
29/02:00pm 16.3 SSE 4 6 1018.2 - 0.0 - - - - - - -
29/01:30pm 16.1 SE 6 9 1018.3 - 0.0 - - - - - - -
29/01:00pm 15.3 SE 6 10 1018.7 - 0.0 - - - - - - -
29/12:30pm 16.1 ESE 4 7 1019.1 - 0.0 - - - - - - -
29/12:00pm 15.2 SE 2 7 1019.5 - 0.0 - - - - - - -
29/11:30am 14.9 SE 3 7 1019.8 - 0.0 - - - - - - -
29/11:00am 14.9 ESE 4 7 1020.1 - 0.0 - - - - - - -
29/10:30am 14.3 ESE 4 5 1020.3 - 0.0 - - - - - - -
29/10:00am 12.7 S 3 4 1020.4 - 0.0 - - - - - - -
29/09:30am 11.6 SSE 3 5 1020.3 - 0.0 - - - - - - -
29/09:00am 10.3 SE 3 5 1020.2 - 0.0 - - - - - - -
29/08:30am 8.2 E 2 3 1019.9 - 0.0 - - - - - - -
29/08:00am 6.6 ESE 2 2 1019.7 - 0.0 - - - - - - -
29/07:30am 4.6 CALM 0 0 1019.4 - 0.0 - - - - - - -
29/07:00am 5.0 S 3 3 1019.2 - 0.0 - - - - - - -
29/06:30am 5.1 CALM 0 0 1018.9 - 0.0 - - - - - - -
29/06:00am 5.0 CALM 0 0 1018.5 - 0.0 - - - - - - -
29/05:30am 5.3 CALM 0 0 1018.2 - 0.0 - - - - - - -
29/05:00am 5.5 CALM 0 0 1018.0 - 0.0 - - - - - - -
29/04:30am 5.7 CALM 0 0 1017.8 - 0.0 - - - - - - -
29/04:00am 6.2 CALM 0 0 1017.5 - 0.0 - - - - - - -
29/03:30am 5.7 CALM 0 0 1017.4 - 0.0 - - - - - - -
29/03:00am 6.6 CALM 0 0 1017.2 - 0.0 - - - - - - -
29/02:30am 7.2 CALM 0 0 1017.2 - 0.0 - - - - - - -
29/02:00am 7.4 CALM 0 0 1017.1 - 0.0 - - - - - - -

Other Formats:

Comma delimited format used in spreadsheet applications
http://www.bom.gov.au/fwo/IDW60701/IDW60701.94604.axf

JavaScript Object Notation format (JSON) in row-major order
http://www.bom.gov.au/fwo/IDW60701/IDW60701.94604.json